sensor_id;sensor_type;location;lat;lon;timestamp;P1;durP1;ratioP1;P2;durP2;ratioP2
63438;SDS011;49567;48.958;8.294;2022-07-05T00:02:10;1.10;;;0.60;;
63438;SDS011;49567;48.958;8.294;2022-07-05T00:04:35;1.87;;;0.60;;
63438;SDS011;49567;48.958;8.294;2022-07-05T00:07:01;0.50;;;0.50;;
63438;SDS011;49567;48.958;8.294;2022-07-05T00:09:48;3.43;;;0.63;;
63438;SDS011;49567;48.958;8.294;2022-07-05T00:12:19;1.70;;;0.80;;
63438;SDS011;49567;48.958;8.294;2022-07-05T00:14:46;0.60;;;0.60;;
63438;SDS011;49567;48.958;8.294;2022-07-05T00:17:12;4.38;;;0.80;;
63438;SDS011;49567;48.958;8.294;2022-07-05T00:19:38;2.00;;;0.60;;
63438;SDS011;49567;48.958;8.294;2022-07-05T00:22:04;1.63;;;0.60;;
63438;SDS011;49567;48.958;8.294;2022-07-05T00:24:29;0.67;;;0.60;;
63438;SDS011;49567;48.958;8.294;2022-07-05T00:26:58;1.50;;;0.60;;
63438;SDS011;49567;48.958;8.294;2022-07-05T00:29:23;0.50;;;0.50;;
63438;SDS011;49567;48.958;8.294;2022-07-05T00:31:50;1.60;;;0.75;;
63438;SDS011;49567;48.958;8.294;2022-07-05T00:34:15;1.00;;;0.50;;
63438;SDS011;49567;48.958;8.294;2022-07-05T00:36:40;1.67;;;0.50;;
63438;SDS011;49567;48.958;8.294;2022-07-05T00:39:06;1.47;;;0.40;;
63438;SDS011;49567;48.958;8.294;2022-07-05T00:41:32;1.77;;;0.60;;
63438;SDS011;49567;48.958;8.294;2022-07-05T00:43:59;1.83;;;0.90;;
63438;SDS011;49567;48.958;8.294;2022-07-05T00:46:29;2.70;;;0.65;;
63438;SDS011;49567;48.958;8.294;2022-07-05T00:48:54;1.90;;;0.40;;
63438;SDS011;49567;48.958;8.294;2022-07-05T00:51:20;0.70;;;0.60;;
63438;SDS011;49567;48.958;8.294;2022-07-05T00:53:46;2.67;;;0.70;;
63438;SDS011;49567;48.958;8.294;2022-07-05T00:56:12;1.03;;;0.50;;
63438;SDS011;49567;48.958;8.294;2022-07-05T00:58:38;4.43;;;0.77;;
63438;SDS011;49567;48.958;8.294;2022-07-05T01:01:05;4.70;;;1.00;;
63438;SDS011;49567;48.958;8.294;2022-07-05T01:03:31;1.30;;;0.85;;
63438;SDS011;49567;48.958;8.294;2022-07-05T01:05:57;0.57;;;0.55;;
63438;SDS011;49567;48.958;8.294;2022-07-05T01:08:25;0.75;;;0.70;;
63438;SDS011;49567;48.958;8.294;2022-07-05T01:10:51;1.77;;;0.87;;
63438;SDS011;49567;48.958;8.294;2022-07-05T01:13:17;2.40;;;0.85;;
63438;SDS011;49567;48.958;8.294;2022-07-05T01:15:42;1.03;;;0.73;;
63438;SDS011;49567;48.958;8.294;2022-07-05T01:18:08;1.60;;;0.75;;
63438;SDS011;49567;48.958;8.294;2022-07-05T01:20:35;1.38;;;0.98;;
63438;SDS011;49567;48.958;8.294;2022-07-05T01:23:01;2.45;;;1.10;;
63438;SDS011;49567;48.958;8.294;2022-07-05T01:25:28;1.95;;;1.25;;
63438;SDS011;49567;48.958;8.294;2022-07-05T01:27:54;3.50;;;1.33;;
63438;SDS011;49567;48.958;8.294;2022-07-05T01:30:21;3.28;;;1.40;;
63438;SDS011;49567;48.958;8.294;2022-07-05T01:32:48;2.40;;;1.10;;
63438;SDS011;49567;48.958;8.294;2022-07-05T01:35:13;1.10;;;0.90;;
63438;SDS011;49567;48.958;8.294;2022-07-05T01:37:39;1.67;;;0.90;;
63438;SDS011;49567;48.958;8.294;2022-07-05T01:40:05;2.40;;;1.00;;
63438;SDS011;49567;48.958;8.294;2022-07-05T01:42:32;2.08;;;1.25;;
63438;SDS011;49567;48.958;8.294;2022-07-05T01:44:57;1.98;;;0.85;;
63438;SDS011;49567;48.958;8.294;2022-07-05T01:47:23;0.83;;;0.83;;
63438;SDS011;49567;48.958;8.294;2022-07-05T01:49:50;1.70;;;0.90;;
63438;SDS011;49567;48.958;8.294;2022-07-05T01:52:20;2.70;;;1.10;;
63438;SDS011;49567;48.958;8.294;2022-07-05T01:54:47;0.98;;;0.85;;
63438;SDS011;49567;48.958;8.294;2022-07-05T01:57:13;0.90;;;0.70;;
63438;SDS011;49567;48.958;8.294;2022-07-05T01:59:38;1.52;;;0.88;;
63438;SDS011;49567;48.958;8.294;2022-07-05T02:02:04;2.00;;;0.80;;
63438;SDS011;49567;48.958;8.294;2022-07-05T02:04:31;0.80;;;0.70;;
63438;SDS011;49567;48.958;8.294;2022-07-05T02:06:58;1.15;;;0.85;;
63438;SDS011;49567;48.958;8.294;2022-07-05T02:09:24;1.40;;;0.80;;
63438;SDS011;49567;48.958;8.294;2022-07-05T02:11:49;1.07;;;0.87;;
63438;SDS011;49567;48.958;8.294;2022-07-05T02:14:15;1.43;;;0.90;;
63438;SDS011;49567;48.958;8.294;2022-07-05T02:16:40;1.88;;;0.82;;
63438;SDS011;49567;48.958;8.294;2022-07-05T02:19:05;2.07;;;0.90;;
63438;SDS011;49567;48.958;8.294;2022-07-05T02:21:31;1.33;;;0.70;;
63438;SDS011;49567;48.958;8.294;2022-07-05T02:23:56;0.90;;;0.73;;
63438;SDS011;49567;48.958;8.294;2022-07-05T02:26:21;0.60;;;0.60;;
63438;SDS011;49567;48.958;8.294;2022-07-05T02:28:47;0.90;;;0.70;;
63438;SDS011;49567;48.958;8.294;2022-07-05T02:31:13;0.85;;;0.60;;
63438;SDS011;49567;48.958;8.294;2022-07-05T02:33:40;2.13;;;1.02;;
63438;SDS011;49567;48.958;8.294;2022-07-05T02:36:09;1.07;;;0.70;;
63438;SDS011;49567;48.958;8.294;2022-07-05T02:38:36;1.40;;;0.65;;
63438;SDS011;49567;48.958;8.294;2022-07-05T02:41:05;2.38;;;1.20;;
63438;SDS011;49567;48.958;8.294;2022-07-05T02:43:32;1.13;;;0.85;;
63438;SDS011;49567;48.958;8.294;2022-07-05T02:45:58;0.63;;;0.60;;
63438;SDS011;49567;48.958;8.294;2022-07-05T02:48:23;1.13;;;0.90;;
63438;SDS011;49567;48.958;8.294;2022-07-05T02:50:48;0.80;;;0.80;;
63438;SDS011;49567;48.958;8.294;2022-07-05T02:53:14;0.70;;;0.70;;
63438;SDS011;49567;48.958;8.294;2022-07-05T02:55:39;5.07;;;0.93;;
63438;SDS011;49567;48.958;8.294;2022-07-05T02:58:04;2.63;;;1.10;;
63438;SDS011;49567;48.958;8.294;2022-07-05T03:00:30;1.20;;;1.00;;
63438;SDS011;49567;48.958;8.294;2022-07-05T03:02:55;1.40;;;0.80;;
63438;SDS011;49567;48.958;8.294;2022-07-05T03:05:20;3.73;;;1.80;;
63438;SDS011;49567;48.958;8.294;2022-07-05T03:07:46;3.30;;;1.10;;
63438;SDS011;49567;48.958;8.294;2022-07-05T03:10:11;1.07;;;0.87;;
63438;SDS011;49567;48.958;8.294;2022-07-05T03:12:36;1.03;;;0.97;;
63438;SDS011;49567;48.958;8.294;2022-07-05T03:15:02;2.37;;;1.20;;
63438;SDS011;49567;48.958;8.294;2022-07-05T03:17:27;1.55;;;0.93;;
63438;SDS011;49567;48.958;8.294;2022-07-05T03:19:52;3.57;;;1.13;;
63438;SDS011;49567;48.958;8.294;2022-07-05T03:22:17;0.93;;;0.90;;
63438;SDS011;49567;48.958;8.294;2022-07-05T03:24:43;1.77;;;0.90;;
63438;SDS011;49567;48.958;8.294;2022-07-05T03:27:08;1.10;;;1.00;;
63438;SDS011;49567;48.958;8.294;2022-07-05T03:29:33;4.63;;;1.33;;
63438;SDS011;49567;48.958;8.294;2022-07-05T03:31:58;1.53;;;0.90;;
63438;SDS011;49567;48.958;8.294;2022-07-05T03:34:24;1.35;;;1.30;;
63438;SDS011;49567;48.958;8.294;2022-07-05T03:36:49;2.23;;;1.07;;
63438;SDS011;49567;48.958;8.294;2022-07-05T03:39:14;1.43;;;1.00;;
63438;SDS011;49567;48.958;8.294;2022-07-05T03:41:40;1.20;;;1.10;;
63438;SDS011;49567;48.958;8.294;2022-07-05T03:44:05;3.65;;;1.10;;
63438;SDS011;49567;48.958;8.294;2022-07-05T03:46:31;3.40;;;1.50;;
63438;SDS011;49567;48.958;8.294;2022-07-05T03:48:56;1.13;;;0.93;;
63438;SDS011;49567;48.958;8.294;2022-07-05T03:51:21;2.10;;;1.20;;
63438;SDS011;49567;48.958;8.294;2022-07-05T03:53:47;2.80;;;1.30;;
63438;SDS011;49567;48.958;8.294;2022-07-05T03:56:12;0.90;;;0.90;;
63438;SDS011;49567;48.958;8.294;2022-07-05T03:58:37;3.53;;;1.00;;
63438;SDS011;49567;48.958;8.294;2022-07-05T04:01:02;2.37;;;1.00;;
63438;SDS011;49567;48.958;8.294;2022-07-05T04:03:28;1.40;;;0.97;;
63438;SDS011;49567;48.958;8.294;2022-07-05T04:05:53;2.33;;;0.90;;
63438;SDS011;49567;48.958;8.294;2022-07-05T04:08:18;1.80;;;1.20;;
63438;SDS011;49567;48.958;8.294;2022-07-05T04:10:44;2.38;;;1.00;;
63438;SDS011;49567;48.958;8.294;2022-07-05T04:13:09;3.13;;;1.20;;
63438;SDS011;49567;48.958;8.294;2022-07-05T04:15:34;2.10;;;0.90;;
63438;SDS011;49567;48.958;8.294;2022-07-05T04:18:00;1.70;;;0.70;;
63438;SDS011;49567;48.958;8.294;2022-07-05T04:20:25;1.27;;;0.80;;
63438;SDS011;49567;48.958;8.294;2022-07-05T04:22:51;2.33;;;0.82;;
63438;SDS011;49567;48.958;8.294;2022-07-05T04:25:16;4.43;;;0.87;;
63438;SDS011;49567;48.958;8.294;2022-07-05T04:27:46;1.15;;;0.88;;
63438;SDS011;49567;48.958;8.294;2022-07-05T04:30:14;3.30;;;1.20;;
63438;SDS011;49567;48.958;8.294;2022-07-05T04:32:40;10.98;;;1.33;;
63438;SDS011;49567;48.958;8.294;2022-07-05T04:35:06;3.40;;;1.20;;
63438;SDS011;49567;48.958;8.294;2022-07-05T04:37:32;4.15;;;1.27;;
63438;SDS011;49567;48.958;8.294;2022-07-05T04:39:57;3.50;;;1.10;;
63438;SDS011;49567;48.958;8.294;2022-07-05T04:42:23;1.40;;;1.07;;
63438;SDS011;49567;48.958;8.294;2022-07-05T04:44:48;2.20;;;1.10;;
63438;SDS011;49567;48.958;8.294;2022-07-05T04:47:13;1.90;;;1.07;;
63438;SDS011;49567;48.958;8.294;2022-07-05T04:49:38;1.63;;;0.97;;
63438;SDS011;49567;48.958;8.294;2022-07-05T04:52:04;1.37;;;0.93;;
63438;SDS011;49567;48.958;8.294;2022-07-05T04:54:29;2.17;;;0.90;;
63438;SDS011;49567;48.958;8.294;2022-07-05T04:56:55;1.80;;;1.50;;
63438;SDS011;49567;48.958;8.294;2022-07-05T04:59:20;2.70;;;0.80;;
63438;SDS011;49567;48.958;8.294;2022-07-05T05:01:45;4.73;;;1.17;;
63438;SDS011;49567;48.958;8.294;2022-07-05T05:04:10;1.37;;;0.90;;
63438;SDS011;49567;48.958;8.294;2022-07-05T05:06:36;2.63;;;0.93;;
63438;SDS011;49567;48.958;8.294;2022-07-05T05:09:01;1.77;;;1.05;;
63438;SDS011;49567;48.958;8.294;2022-07-05T05:11:27;3.73;;;0.80;;
63438;SDS011;49567;48.958;8.294;2022-07-05T05:13:52;1.80;;;0.80;;
63438;SDS011;49567;48.958;8.294;2022-07-05T05:16:17;1.67;;;0.87;;
63438;SDS011;49567;48.958;8.294;2022-07-05T05:18:43;2.13;;;1.00;;
63438;SDS011;49567;48.958;8.294;2022-07-05T05:21:08;3.07;;;0.90;;
63438;SDS011;49567;48.958;8.294;2022-07-05T05:23:33;1.80;;;1.20;;
63438;SDS011;49567;48.958;8.294;2022-07-05T05:25:58;1.30;;;0.70;;
63438;SDS011;49567;48.958;8.294;2022-07-05T05:28:24;0.88;;;0.85;;
63438;SDS011;49567;48.958;8.294;2022-07-05T05:30:49;3.10;;;1.10;;
63438;SDS011;49567;48.958;8.294;2022-07-05T05:33:14;1.07;;;0.80;;
63438;SDS011;49567;48.958;8.294;2022-07-05T05:35:40;1.67;;;0.97;;
63438;SDS011;49567;48.958;8.294;2022-07-05T05:38:05;1.30;;;0.83;;
63438;SDS011;49567;48.958;8.294;2022-07-05T05:40:30;1.08;;;0.90;;
63438;SDS011;49567;48.958;8.294;2022-07-05T05:42:57;2.63;;;0.75;;
63438;SDS011;49567;48.958;8.294;2022-07-05T05:45:23;1.20;;;1.10;;
63438;SDS011;49567;48.958;8.294;2022-07-05T05:47:49;2.60;;;0.93;;
63438;SDS011;49567;48.958;8.294;2022-07-05T05:50:19;6.90;;;1.10;;
63438;SDS011;49567;48.958;8.294;2022-07-05T05:52:47;1.80;;;0.93;;
63438;SDS011;49567;48.958;8.294;2022-07-05T05:55:12;1.40;;;1.10;;
63438;SDS011;49567;48.958;8.294;2022-07-05T05:57:37;1.93;;;1.03;;
63438;SDS011;49567;48.958;8.294;2022-07-05T06:00:04;1.53;;;1.20;;
63438;SDS011;49567;48.958;8.294;2022-07-05T06:02:30;2.38;;;0.82;;
63438;SDS011;49567;48.958;8.294;2022-07-05T06:04:55;1.90;;;1.03;;
63438;SDS011;49567;48.958;8.294;2022-07-05T06:07:21;2.70;;;1.10;;
63438;SDS011;49567;48.958;8.294;2022-07-05T06:09:46;1.63;;;1.10;;
63438;SDS011;49567;48.958;8.294;2022-07-05T06:12:11;1.63;;;1.23;;
63438;SDS011;49567;48.958;8.294;2022-07-05T06:14:36;5.50;;;1.30;;
63438;SDS011;49567;48.958;8.294;2022-07-05T06:17:02;2.43;;;1.83;;
63438;SDS011;49567;48.958;8.294;2022-07-05T06:19:27;2.28;;;1.45;;
63438;SDS011;49567;48.958;8.294;2022-07-05T06:21:52;4.03;;;1.47;;
63438;SDS011;49567;48.958;8.294;2022-07-05T06:24:17;5.40;;;1.40;;
63438;SDS011;49567;48.958;8.294;2022-07-05T06:26:43;3.00;;;1.23;;
63438;SDS011;49567;48.958;8.294;2022-07-05T06:29:08;1.37;;;1.20;;
63438;SDS011;49567;48.958;8.294;2022-07-05T06:31:33;3.03;;;1.17;;
63438;SDS011;49567;48.958;8.294;2022-07-05T06:33:58;1.13;;;1.13;;
63438;SDS011;49567;48.958;8.294;2022-07-05T06:36:24;3.33;;;1.10;;
63438;SDS011;49567;48.958;8.294;2022-07-05T06:38:49;2.30;;;1.10;;
63438;SDS011;49567;48.958;8.294;2022-07-05T06:41:14;2.50;;;1.20;;
63438;SDS011;49567;48.958;8.294;2022-07-05T06:43:39;1.97;;;0.93;;
63438;SDS011;49567;48.958;8.294;2022-07-05T06:46:05;4.53;;;0.90;;
63438;SDS011;49567;48.958;8.294;2022-07-05T06:48:30;2.63;;;1.00;;
63438;SDS011;49567;48.958;8.294;2022-07-05T06:50:55;2.58;;;0.90;;
63438;SDS011;49567;48.958;8.294;2022-07-05T06:53:21;1.13;;;0.97;;
63438;SDS011;49567;48.958;8.294;2022-07-05T06:55:46;2.23;;;0.93;;
63438;SDS011;49567;48.958;8.294;2022-07-05T06:58:11;1.70;;;1.10;;
63438;SDS011;49567;48.958;8.294;2022-07-05T07:00:37;4.03;;;1.40;;
63438;SDS011;49567;48.958;8.294;2022-07-05T07:03:03;1.30;;;1.00;;
63438;SDS011;49567;48.958;8.294;2022-07-05T07:05:29;2.17;;;0.90;;
63438;SDS011;49567;48.958;8.294;2022-07-05T07:07:54;2.47;;;1.07;;
63438;SDS011;49567;48.958;8.294;2022-07-05T07:10:38;1.40;;;1.00;;
63438;SDS011;49567;48.958;8.294;2022-07-05T07:13:03;2.73;;;1.00;;
63438;SDS011;49567;48.958;8.294;2022-07-05T07:15:29;1.52;;;1.00;;
63438;SDS011;49567;48.958;8.294;2022-07-05T07:17:55;1.95;;;1.50;;
63438;SDS011;49567;48.958;8.294;2022-07-05T07:20:21;2.23;;;0.97;;
63438;SDS011;49567;48.958;8.294;2022-07-05T07:22:46;1.45;;;0.90;;
63438;SDS011;49567;48.958;8.294;2022-07-05T07:25:11;6.30;;;0.90;;
63438;SDS011;49567;48.958;8.294;2022-07-05T07:27:47;1.10;;;0.90;;
63438;SDS011;49567;48.958;8.294;2022-07-05T07:30:14;1.83;;;0.98;;
63438;SDS011;49567;48.958;8.294;2022-07-05T07:32:41;1.73;;;0.65;;
63438;SDS011;49567;48.958;8.294;2022-07-05T07:35:09;1.30;;;1.20;;
63438;SDS011;49567;48.958;8.294;2022-07-05T07:37:34;2.07;;;0.90;;
63438;SDS011;49567;48.958;8.294;2022-07-05T07:40:00;1.00;;;0.90;;
63438;SDS011;49567;48.958;8.294;2022-07-05T07:42:26;1.55;;;0.80;;
63438;SDS011;49567;48.958;8.294;2022-07-05T07:44:52;2.88;;;1.15;;
63438;SDS011;49567;48.958;8.294;2022-07-05T07:47:18;2.93;;;0.80;;
63438;SDS011;49567;48.958;8.294;2022-07-05T07:49:43;1.83;;;0.93;;
63438;SDS011;49567;48.958;8.294;2022-07-05T07:52:09;0.63;;;0.60;;
63438;SDS011;49567;48.958;8.294;2022-07-05T07:54:34;6.35;;;0.82;;
63438;SDS011;49567;48.958;8.294;2022-07-05T07:56:59;2.27;;;0.93;;
63438;SDS011;49567;48.958;8.294;2022-07-05T07:59:26;1.90;;;0.80;;
63438;SDS011;49567;48.958;8.294;2022-07-05T08:01:52;2.60;;;0.70;;
63438;SDS011;49567;48.958;8.294;2022-07-05T08:04:17;1.83;;;0.90;;
63438;SDS011;49567;48.958;8.294;2022-07-05T08:06:43;0.50;;;0.50;;
63438;SDS011;49567;48.958;8.294;2022-07-05T08:09:09;0.80;;;0.60;;
63438;SDS011;49567;48.958;8.294;2022-07-05T08:11:35;1.30;;;0.50;;
63438;SDS011;49567;48.958;8.294;2022-07-05T08:14:00;0.65;;;0.50;;
63438;SDS011;49567;48.958;8.294;2022-07-05T08:16:25;1.30;;;0.70;;
63438;SDS011;49567;48.958;8.294;2022-07-05T08:18:50;1.60;;;0.30;;
63438;SDS011;49567;48.958;8.294;2022-07-05T08:21:34;0.70;;;0.70;;
63438;SDS011;49567;48.958;8.294;2022-07-05T08:24:03;2.00;;;0.93;;
63438;SDS011;49567;48.958;8.294;2022-07-05T08:26:34;1.50;;;0.47;;
63438;SDS011;49567;48.958;8.294;2022-07-05T08:29:01;1.73;;;0.60;;
63438;SDS011;49567;48.958;8.294;2022-07-05T08:31:30;0.77;;;0.60;;
63438;SDS011;49567;48.958;8.294;2022-07-05T08:33:57;2.80;;;0.60;;
63438;SDS011;49567;48.958;8.294;2022-07-05T08:36:24;0.68;;;0.68;;
63438;SDS011;49567;48.958;8.294;2022-07-05T08:38:49;2.10;;;0.63;;
63438;SDS011;49567;48.958;8.294;2022-07-05T08:41:17;2.00;;;0.50;;
63438;SDS011;49567;48.958;8.294;2022-07-05T08:43:45;1.25;;;0.55;;
63438;SDS011;49567;48.958;8.294;2022-07-05T08:46:12;1.67;;;0.60;;
63438;SDS011;49567;48.958;8.294;2022-07-05T08:48:41;1.50;;;0.93;;
63438;SDS011;49567;48.958;8.294;2022-07-05T08:51:28;1.70;;;0.70;;
63438;SDS011;49567;48.958;8.294;2022-07-05T08:53:54;1.58;;;0.60;;
63438;SDS011;49567;48.958;8.294;2022-07-05T08:56:22;1.33;;;0.60;;
63438;SDS011;49567;48.958;8.294;2022-07-05T08:58:48;1.58;;;0.50;;
63438;SDS011;49567;48.958;8.294;2022-07-05T09:01:16;1.05;;;0.47;;
63438;SDS011;49567;48.958;8.294;2022-07-05T09:03:42;0.63;;;0.50;;
63438;SDS011;49567;48.958;8.294;2022-07-05T09:06:13;3.30;;;0.60;;
63438;SDS011;49567;48.958;8.294;2022-07-05T09:08:41;1.48;;;0.65;;
63438;SDS011;49567;48.958;8.294;2022-07-05T09:11:07;1.35;;;0.50;;
63438;SDS011;49567;48.958;8.294;2022-07-05T09:13:35;2.35;;;0.70;;
63438;SDS011;49567;48.958;8.294;2022-07-05T09:16:02;3.03;;;0.70;;
63438;SDS011;49567;48.958;8.294;2022-07-05T09:18:40;2.75;;;0.70;;
63438;SDS011;49567;48.958;8.294;2022-07-05T09:23:54;0.63;;;0.40;;
63438;SDS011;49567;48.958;8.294;2022-07-05T09:28:59;1.00;;;0.40;;
63438;SDS011;49567;48.958;8.294;2022-07-05T09:31:25;0.82;;;0.57;;
63438;SDS011;49567;48.958;8.294;2022-07-05T09:33:53;2.38;;;0.65;;
63438;SDS011;49567;48.958;8.294;2022-07-05T09:36:19;1.00;;;0.40;;
63438;SDS011;49567;48.958;8.294;2022-07-05T09:38:49;0.70;;;0.43;;
63438;SDS011;49567;48.958;8.294;2022-07-05T09:41:15;0.60;;;0.30;;
63438;SDS011;49567;48.958;8.294;2022-07-05T09:43:40;1.60;;;0.47;;
63438;SDS011;49567;48.958;8.294;2022-07-05T09:46:06;0.93;;;0.50;;
63438;SDS011;49567;48.958;8.294;2022-07-05T09:48:32;1.30;;;0.40;;
63438;SDS011;49567;48.958;8.294;2022-07-05T09:51:08;2.70;;;0.55;;
63438;SDS011;49567;48.958;8.294;2022-07-05T09:53:49;0.75;;;0.30;;
63438;SDS011;49567;48.958;8.294;2022-07-05T09:56:16;3.63;;;0.50;;
63438;SDS011;49567;48.958;8.294;2022-07-05T09:58:42;0.50;;;0.40;;
63438;SDS011;49567;48.958;8.294;2022-07-05T10:01:24;2.00;;;0.57;;
63438;SDS011;49567;48.958;8.294;2022-07-05T10:03:59;0.35;;;0.35;;
63438;SDS011;49567;48.958;8.294;2022-07-05T10:06:30;1.98;;;0.70;;
63438;SDS011;49567;48.958;8.294;2022-07-05T10:08:57;1.30;;;0.50;;
63438;SDS011;49567;48.958;8.294;2022-07-05T10:11:24;1.77;;;0.70;;
63438;SDS011;49567;48.958;8.294;2022-07-05T10:13:50;1.08;;;0.40;;
63438;SDS011;49567;48.958;8.294;2022-07-05T10:16:17;0.67;;;0.40;;
63438;SDS011;49567;48.958;8.294;2022-07-05T10:18:44;1.40;;;0.40;;
63438;SDS011;49567;48.958;8.294;2022-07-05T10:21:14;0.85;;;0.40;;
63438;SDS011;49567;48.958;8.294;2022-07-05T10:23:42;0.70;;;0.45;;
63438;SDS011;49567;48.958;8.294;2022-07-05T10:26:10;1.03;;;0.63;;
63438;SDS011;49567;48.958;8.294;2022-07-05T10:28:37;1.73;;;0.40;;
63438;SDS011;49567;48.958;8.294;2022-07-05T10:31:04;0.50;;;0.50;;
63438;SDS011;49567;48.958;8.294;2022-07-05T10:33:33;2.22;;;0.50;;
63438;SDS011;49567;48.958;8.294;2022-07-05T10:35:58;0.57;;;0.30;;
63438;SDS011;49567;48.958;8.294;2022-07-05T10:38:24;3.03;;;0.63;;
63438;SDS011;49567;48.958;8.294;2022-07-05T10:40:51;1.05;;;0.20;;
63438;SDS011;49567;48.958;8.294;2022-07-05T10:43:21;0.90;;;0.30;;
63438;SDS011;49567;48.958;8.294;2022-07-05T10:45:47;0.50;;;0.50;;
63438;SDS011;49567;48.958;8.294;2022-07-05T10:50:52;1.00;;;0.60;;
63438;SDS011;49567;48.958;8.294;2022-07-05T10:53:28;1.83;;;0.30;;
63438;SDS011;49567;48.958;8.294;2022-07-05T10:56:13;1.85;;;0.30;;
63438;SDS011;49567;48.958;8.294;2022-07-05T10:58:40;1.08;;;0.35;;
63438;SDS011;49567;48.958;8.294;2022-07-05T11:03:41;0.40;;;0.30;;
63438;SDS011;49567;48.958;8.294;2022-07-05T11:06:09;1.17;;;0.25;;
63438;SDS011;49567;48.958;8.294;2022-07-05T11:11:28;0.30;;;0.30;;
63438;SDS011;49567;48.958;8.294;2022-07-05T11:13:55;0.90;;;0.40;;
63438;SDS011;49567;48.958;8.294;2022-07-05T11:21:32;2.80;;;0.40;;
63438;SDS011;49567;48.958;8.294;2022-07-05T11:24:17;1.20;;;0.23;;
63438;SDS011;49567;48.958;8.294;2022-07-05T11:26:58;0.60;;;0.40;;
63438;SDS011;49567;48.958;8.294;2022-07-05T11:32:14;0.90;;;0.30;;
63438;SDS011;49567;48.958;8.294;2022-07-05T11:34:49;0.47;;;0.30;;
63438;SDS011;49567;48.958;8.294;2022-07-05T11:37:23;0.63;;;0.32;;
63438;SDS011;49567;48.958;8.294;2022-07-05T11:42:36;0.50;;;0.20;;
63438;SDS011;49567;48.958;8.294;2022-07-05T11:45:07;1.90;;;0.30;;
63438;SDS011;49567;48.958;8.294;2022-07-05T11:47:40;0.63;;;0.32;;
63438;SDS011;49567;48.958;8.294;2022-07-05T11:50:24;1.05;;;0.25;;
63438;SDS011;49567;48.958;8.294;2022-07-05T11:52:52;0.80;;;0.45;;
63438;SDS011;49567;48.958;8.294;2022-07-05T11:55:18;1.10;;;0.40;;
63438;SDS011;49567;48.958;8.294;2022-07-05T11:57:50;0.93;;;0.30;;
63438;SDS011;49567;48.958;8.294;2022-07-05T12:03:01;2.10;;;0.80;;
63438;SDS011;49567;48.958;8.294;2022-07-05T12:05:36;0.30;;;0.30;;
63438;SDS011;49567;48.958;8.294;2022-07-05T12:08:01;0.70;;;0.30;;
63438;SDS011;49567;48.958;8.294;2022-07-05T12:10:26;2.90;;;0.60;;
63438;SDS011;49567;48.958;8.294;2022-07-05T12:13:10;0.40;;;0.30;;
63438;SDS011;49567;48.958;8.294;2022-07-05T12:15:36;2.13;;;0.53;;
63438;SDS011;49567;48.958;8.294;2022-07-05T12:18:03;2.60;;;0.40;;
63438;SDS011;49567;48.958;8.294;2022-07-05T12:20:30;0.40;;;0.20;;
63438;SDS011;49567;48.958;8.294;2022-07-05T12:22:57;0.70;;;0.40;;
63438;SDS011;49567;48.958;8.294;2022-07-05T12:25:24;1.75;;;0.20;;
63438;SDS011;49567;48.958;8.294;2022-07-05T12:27:54;2.10;;;0.40;;
63438;SDS011;49567;48.958;8.294;2022-07-05T12:30:20;2.85;;;0.32;;
63438;SDS011;49567;48.958;8.294;2022-07-05T12:35:36;1.20;;;0.50;;
63438;SDS011;49567;48.958;8.294;2022-07-05T12:38:12;0.37;;;0.20;;
63438;SDS011;49567;48.958;8.294;2022-07-05T12:40:40;0.20;;;0.20;;
63438;SDS011;49567;48.958;8.294;2022-07-05T12:43:11;0.70;;;0.38;;
63438;SDS011;49567;48.958;8.294;2022-07-05T12:45:38;2.10;;;0.33;;
63438;SDS011;49567;48.958;8.294;2022-07-05T12:48:06;3.20;;;0.50;;
63438;SDS011;49567;48.958;8.294;2022-07-05T12:50:49;2.70;;;0.30;;
63438;SDS011;49567;48.958;8.294;2022-07-05T12:53:16;1.00;;;0.40;;
63438;SDS011;49567;48.958;8.294;2022-07-05T12:56:05;0.90;;;0.20;;
63438;SDS011;49567;48.958;8.294;2022-07-05T12:58:51;2.00;;;0.80;;
63438;SDS011;49567;48.958;8.294;2022-07-05T13:01:28;0.30;;;0.30;;
63438;SDS011;49567;48.958;8.294;2022-07-05T13:07:11;1.85;;;0.35;;
63438;SDS011;49567;48.958;8.294;2022-07-05T13:09:16;1.52;;;0.40;;
63438;SDS011;49567;48.958;8.294;2022-07-05T13:12:10;0.70;;;0.50;;
63438;SDS011;49567;48.958;8.294;2022-07-05T13:14:38;1.85;;;0.30;;
63438;SDS011;49567;48.958;8.294;2022-07-05T13:17:05;1.00;;;0.43;;
63438;SDS011;49567;48.958;8.294;2022-07-05T13:19:32;1.00;;;0.38;;
63438;SDS011;49567;48.958;8.294;2022-07-05T13:21:57;0.90;;;0.30;;
63438;SDS011;49567;48.958;8.294;2022-07-05T13:24:23;0.83;;;0.30;;
63438;SDS011;49567;48.958;8.294;2022-07-05T13:26:48;1.73;;;0.30;;
63438;SDS011;49567;48.958;8.294;2022-07-05T13:29:14;0.90;;;0.20;;
63438;SDS011;49567;48.958;8.294;2022-07-05T13:31:39;1.63;;;0.30;;
63438;SDS011;49567;48.958;8.294;2022-07-05T13:34:04;0.90;;;0.40;;
63438;SDS011;49567;48.958;8.294;2022-07-05T13:36:29;0.30;;;0.30;;
63438;SDS011;49567;48.958;8.294;2022-07-05T13:39:02;0.50;;;0.40;;
63438;SDS011;49567;48.958;8.294;2022-07-05T13:41:28;0.60;;;0.30;;
63438;SDS011;49567;48.958;8.294;2022-07-05T13:43:53;0.73;;;0.60;;
63438;SDS011;49567;48.958;8.294;2022-07-05T13:46:19;1.20;;;0.50;;
63438;SDS011;49567;48.958;8.294;2022-07-05T13:48:44;3.90;;;0.50;;
63438;SDS011;49567;48.958;8.294;2022-07-05T13:51:09;0.37;;;0.30;;
63438;SDS011;49567;48.958;8.294;2022-07-05T13:53:35;1.10;;;0.40;;
63438;SDS011;49567;48.958;8.294;2022-07-05T13:56:02;2.90;;;0.40;;
63438;SDS011;49567;48.958;8.294;2022-07-05T13:58:30;3.40;;;1.08;;
63438;SDS011;49567;48.958;8.294;2022-07-05T14:00:56;0.60;;;0.20;;
63438;SDS011;49567;48.958;8.294;2022-07-05T14:03:21;0.70;;;0.40;;
63438;SDS011;49567;48.958;8.294;2022-07-05T14:05:47;1.87;;;0.40;;
63438;SDS011;49567;48.958;8.294;2022-07-05T14:08:12;0.73;;;0.20;;
63438;SDS011;49567;48.958;8.294;2022-07-05T14:10:38;2.65;;;0.40;;
63438;SDS011;49567;48.958;8.294;2022-07-05T14:13:04;0.83;;;0.33;;
63438;SDS011;49567;48.958;8.294;2022-07-05T14:15:29;0.50;;;0.23;;
63438;SDS011;49567;48.958;8.294;2022-07-05T14:17:55;1.20;;;0.30;;
63438;SDS011;49567;48.958;8.294;2022-07-05T14:20:20;0.47;;;0.40;;
63438;SDS011;49567;48.958;8.294;2022-07-05T14:22:45;0.30;;;0.30;;
63438;SDS011;49567;48.958;8.294;2022-07-05T14:25:11;1.33;;;0.40;;
63438;SDS011;49567;48.958;8.294;2022-07-05T14:27:36;0.30;;;0.20;;
63438;SDS011;49567;48.958;8.294;2022-07-05T14:30:02;1.00;;;0.30;;
63438;SDS011;49567;48.958;8.294;2022-07-05T14:32:28;0.53;;;0.30;;
63438;SDS011;49567;48.958;8.294;2022-07-05T14:34:53;1.20;;;0.30;;
63438;SDS011;49567;48.958;8.294;2022-07-05T14:37:19;2.30;;;0.37;;
63438;SDS011;49567;48.958;8.294;2022-07-05T14:39:46;1.83;;;0.20;;
63438;SDS011;49567;48.958;8.294;2022-07-05T14:42:11;0.80;;;0.40;;
63438;SDS011;49567;48.958;8.294;2022-07-05T14:44:36;0.30;;;0.30;;
63438;SDS011;49567;48.958;8.294;2022-07-05T14:47:01;1.27;;;1.10;;
63438;SDS011;49567;48.958;8.294;2022-07-05T14:49:27;1.87;;;0.60;;
63438;SDS011;49567;48.958;8.294;2022-07-05T14:51:52;1.77;;;0.30;;
63438;SDS011;49567;48.958;8.294;2022-07-05T14:54:17;1.97;;;0.40;;
63438;SDS011;49567;48.958;8.294;2022-07-05T14:56:43;0.90;;;0.40;;
63438;SDS011;49567;48.958;8.294;2022-07-05T14:59:08;1.50;;;0.40;;
63438;SDS011;49567;48.958;8.294;2022-07-05T15:01:33;0.80;;;0.50;;
63438;SDS011;49567;48.958;8.294;2022-07-05T15:03:58;1.00;;;0.40;;
63438;SDS011;49567;48.958;8.294;2022-07-05T15:06:24;0.20;;;0.20;;
63438;SDS011;49567;48.958;8.294;2022-07-05T15:08:49;0.93;;;0.52;;
63438;SDS011;49567;48.958;8.294;2022-07-05T15:11:14;0.97;;;0.30;;
63438;SDS011;49567;48.958;8.294;2022-07-05T15:13:39;2.07;;;0.57;;
63438;SDS011;49567;48.958;8.294;2022-07-05T15:16:05;0.67;;;0.30;;
63438;SDS011;49567;48.958;8.294;2022-07-05T15:18:30;1.58;;;0.40;;
63438;SDS011;49567;48.958;8.294;2022-07-05T15:20:56;1.40;;;0.40;;